KSPG/SPG METAR and TAF weather

Enter ICAO airport designator
Station Type Date Time Source
KSPG METAR 2022/06/30 13:53 UTC NOAA

KSPG 301353Z 10005KT 10SM CLR 28/23 A3013 RMK AO2 SLP202 T02830233


Station Type Date Time Source
KSPG Decoded METAR 2022/06/30 13:53 UTC NOAA

ST PETERSBURG WHITTED AIRPORT , FL, United States (KSPG) 27-46N 082-38W 2M
Jun 30, 2022 - 09:53 AM EDT / 2022.06.30 1353 UTC
Wind: from the E (100 degrees) at 6 MPH (5 KT):0
Visibility: 10 mile(s):0
Sky conditions: clear
Temperature: 82.9 F (28.3 C)
Dew Point: 73.9 F (23.3 C)
Relative Humidity: 74%
Pressure (altimeter): 30.13 in. Hg (1020 hPa)
ob: KSPG 301353Z 10005KT 10SM CLR 28/23 A3013 RMK AO2 SLP202 T02830233
cycle: 14

Station Type Date Time Source
KSPG TAF UTC NOAA

Error!

Example: see airport list